Latest Weather Observations for Whyalla

IDS60801

Issued at 12:31 pm CST Sunday 23 July 2017 (issued every 30 minutes, with the page automatically refreshed every 10 minutes)

About weather observations | Map of weather stations | Latest weather observations for SA | Other Formats
Station Details ID: 018120 Name: WHYALLA AERO Lat: -33.05 Lon: 137.52 Height: 9.3 m
Data from the previous 72 hours. | See also: Recent months at Whyalla
Date/Time
CST
Temp
°C
App
Temp
°C
Dew
Point
°C
Rel
Hum
%
Delta-T
°C
Wind Press
QNH
hPa
Press
MSL
hPa
Rain since
9am
mm
Dir  Spd
km/h
Gust
km/h
Spd
kts
Gust
kts
23/12:30pm 18.5 14.1 7.6 49 5.5 W 20 32 11 17 1019.9 1019.9 0.0
23/12:00pm 18.4 14.7 8.1 51 5.3 W 17 28 9 15 1020.2 1020.2 0.0
23/11:30am 17.6 13.8 9.2 58 4.4 WNW 19 24 10 13 1020.6 1020.6 0.0
23/11:00am 17.1 12.8 9.5 61 4.0 WNW 22 32 12 17 1020.9 1020.9 0.0
23/10:30am 16.4 11.7 10.5 68 3.1 WNW 26 32 14 17 1021.0 1021.0 0.0
23/10:00am 15.7 11.5 11.1 74 2.5 NW 24 32 13 17 1021.0 1021.0 0.0
23/09:30am 14.7 10.8 10.9 78 2.0 NW 22 28 12 15 1020.6 1020.6 0.0
23/09:00am 13.5 10.0 10.9 84 1.4 NW 20 24 11 13 1020.2 1020.2 0.0
23/08:30am 12.0 9.0 10.6 91 0.7 NW 17 19 9 10 1019.9 1019.9 0.0
23/08:00am 10.0 6.7 9.7 98 0.2 NW 17 20 9 11 1019.6 1019.6 0.0
23/07:30am 8.1 5.1 7.7 97 0.2 NW 13 15 7 8 1019.2 1019.2 0.0
23/07:00am 8.3 5.0 8.0 98 0.1 NW 15 17 8 9 1019.1 1019.1 0.0
23/06:30am 8.8 6.0 8.4 97 0.2 NW 13 17 7 9 1018.6 1018.6 0.0
23/06:00am 10.1 6.2 9.5 96 0.3 WNW 20 26 11 14 1018.4 1018.4 0.0
23/05:30am 7.7 3.8 7.0 95 0.3 NW 17 20 9 11 1018.3 1018.3 0.0
23/05:00am 7.9 3.4 6.0 88 0.9 WNW 19 26 10 14 1018.1 1018.1 0.0
23/04:30am 6.9 2.3 3.7 80 1.4 NW 17 20 9 11 1018.0 1018.0 0.0
23/04:00am 5.7 2.1 3.0 83 1.1 NW 11 13 6 7 1017.8 1017.8 0.0
23/03:30am 6.4 3.1 2.7 77 1.5 NW 9 11 5 6 1017.8 1017.8 0.0
23/03:00am 6.9 3.7 2.8 75 1.7 NNW 9 9 5 5 1018.0 1018.0 0.0
23/02:30am 8.0 4.0 3.1 71 2.1 NW 13 15 7 8 1018.0 1018.0 0.0
23/02:00am 8.6 5.3 2.6 66 2.5 NW 9 13 5 7 1017.9 1017.9 0.0
23/01:30am 9.2 5.6 2.8 64 2.7 NW 11 13 6 7 1017.6 1017.6 0.0
23/01:00am 9.9 5.9 3.0 62 3.0 NNW 13 13 7 7 1017.4 1017.4 0.0
23/12:30am 10.8 7.9 2.6 57 3.5 NW 7 11 4 6 1017.4 1017.4 0.0
23/12:00am 9.7 6.0 2.1 59 3.2 WNW 11 13 6 7 1017.3 1017.3 0.0
 
Date/Time
CST
Temp
°C
App
Temp
°C
Dew
Point
°C
Rel
Hum
%
Delta-T
°C
Wind Press
QNH
hPa
Press
MSL
hPa
Rain since
9am
mm
Dir  Spd
km/h
Gust
km/h
Spd
kts
Gust
kts
22/11:30pm 9.9 6.0 1.3 55 3.5 WNW 11 13 6 7 1017.3 1017.3 0.0
22/11:00pm 11.8 7.1 1.2 48 4.5 NW 15 19 8 10 1017.3 1017.3 0.0
22/10:30pm 11.4 6.7 1.1 49 4.3 NW 15 17 8 9 1017.1 1017.1 0.0
22/10:00pm 12.5 7.8 0.9 45 4.9 NW 15 19 8 10 1016.9 1016.9 0.0
22/09:30pm 13.1 7.5 1.1 44 5.1 WNW 20 30 11 16 1016.7 1016.7 0.0
22/09:00pm 13.0 7.9 1.0 44 5.1 NW 17 19 9 10 1016.2 1016.2 0.0
22/08:30pm 13.0 8.3 1.0 44 5.1 NW 15 19 8 10 1015.9 1015.9 0.0
22/08:00pm 12.9 7.9 1.3 45 4.9 NW 17 19 9 10 1015.9 1015.9 0.0
22/07:30pm 14.0 9.7 1.3 42 5.5 NW 13 17 7 9 1015.7 1015.7 0.0
22/07:00pm 15.1 10.8 0.9 38 6.1 N 13 15 7 8 1015.4 1015.4 0.0
22/06:30pm 17.2 13.6 0.8 33 7.2 N 9 11 5 6 1015.2 1015.2 0.0
22/06:00pm 18.3 14.7 0.9 31 7.7 N 9 11 5 6 1014.7 1014.7 0.0
22/05:30pm 19.9 14.8 0.9 28 8.5 NNW 17 22 9 12 1014.4 1014.4 0.0
22/05:00pm 20.9 14.8 0.7 26 9.1 NNW 22 32 12 17 1014.2 1014.2 0.0
22/04:30pm 21.9 14.7 0.4 24 9.7 NNW 28 35 15 19 1014.0 1014.0 0.0
22/04:00pm 22.2 14.1 0.7 24 9.8 NNW 33 44 18 24 1014.0 1014.0 0.0
22/03:30pm 22.6 15.0 0.4 23 10.1 NNW 30 41 16 22 1014.0 1014.0 0.0
22/03:00pm 22.0 14.1 1.1 25 9.6 N 32 44 17 24 1014.3 1014.3 0.0
22/02:30pm 21.8 14.3 1.5 26 9.4 N 30 41 16 22 1014.7 1014.7 0.0
22/02:00pm 21.1 13.3 1.4 27 9.0 N 32 44 17 24 1015.1 1015.1 0.0
22/01:30pm 20.8 13.0 1.6 28 8.8 N 32 43 17 23 1015.4 1015.4 0.0
22/01:00pm 20.8 12.0 1.1 27 9.0 NNW 37 48 20 26 1016.2 1016.2 0.0
22/12:30pm 19.7 10.5 1.2 29 8.3 N 39 50 21 27 1016.8 1016.8 0.0
22/12:00pm 19.0 9.5 1.5 31 7.9 NNW 41 54 22 29 1017.4 1017.4 0.0
22/11:30am 17.8 9.0 1.3 33 7.3 N 37 48 20 26 1018.5 1018.5 0.0
22/11:00am 17.1 9.2 1.1 34 7.0 NNW 32 56 17 30 1019.0 1019.0 0.0
22/10:57am 17.1 9.6 1.1 34 7.0 NNW 30 54 16 29 1019.0 1019.0 0.0
22/10:30am 15.0 7.1 1.2 39 6.0 NNW 32 41 17 22 1019.5 1019.5 0.0
22/10:00am 14.5 6.6 1.1 40 5.8 NNW 32 43 17 23 1019.9 1019.9 0.0
22/09:30am 14.0 5.6 1.3 42 5.4 N 35 48 19 26 1019.9 1019.9 0.0
22/09:15am 13.6 6.9 1.3 43 5.3 N 26 43 14 23 1019.7 1019.7 0.0
22/09:00am 12.4 7.8 1.7 48 4.6 NNW 15 24 8 13 1019.8 1019.8 0.0
22/08:30am 11.2 6.6 1.5 51 4.1 NNW 15 19 8 10 1019.7 1019.7 0.0
22/08:00am 10.8 6.6 1.4 52 3.9 NNW 13 20 7 11 1019.4 1019.4 0.0
22/07:30am 10.8 5.8 1.1 51 4.0 NNW 17 24 9 13 1019.2 1019.2 0.0
22/07:00am 11.3 5.3 1.0 49 4.3 NNW 22 32 12 17 1018.5 1018.5 0.0
22/06:30am 11.0 4.7 1.3 51 4.0 N 24 32 13 17 1018.4 1018.4 0.0
22/06:00am 10.7 5.1 1.3 52 3.9 NNW 20 30 11 16 1018.4 1018.4 0.0
22/05:30am 10.3 3.9 1.2 53 3.8 NNW 24 32 13 17 1018.3 1018.3 0.0
22/05:00am 11.0 3.9 1.3 51 4.1 N 28 33 15 18 1018.1 1018.1 0.0
22/04:30am 11.6 4.5 1.3 49 4.3 NNW 28 37 15 20 1018.2 1018.2 0.0
22/04:00am 12.1 5.0 1.1 47 4.6 NNW 28 37 15 20 1018.3 1018.3 0.0
22/03:30am 12.1 5.0 1.1 47 4.6 NNW 28 35 15 19 1018.4 1018.4 0.0
22/03:00am 11.6 6.0 1.3 49 4.3 NNW 20 26 11 14 1018.5 1018.5 0.0
22/02:30am 12.3 6.3 1.3 47 4.6 NNW 22 28 12 15 1018.6 1018.6 0.0
22/02:00am 12.6 6.3 1.3 46 4.8 NNW 24 30 13 16 1018.5 1018.5 0.0
22/01:30am 13.0 6.3 1.4 45 4.9 NNW 26 35 14 19 1018.5 1018.5 0.0
22/01:00am 13.0 6.7 1.4 45 5.0 NNW 24 32 13 17 1018.3 1018.3 0.0
22/12:30am 13.3 7.0 1.3 44 5.1 NNW 24 33 13 18 1018.4 1018.4 0.0
22/12:00am 12.5 6.6 1.5 47 4.7 NNW 22 26 12 14 1018.5 1018.5 0.0
 
Date/Time
CST
Temp
°C
App
Temp
°C
Dew
Point
°C
Rel
Hum
%
Delta-T
°C
Wind Press
QNH
hPa
Press
MSL
hPa
Rain since
9am
mm
Dir  Spd
km/h
Gust
km/h
Spd
kts
Gust
kts
21/11:30pm 12.7 7.2 1.7 47 4.7 NNW 20 30 11 16 1018.4 1018.4 0.0
21/11:00pm 12.6 7.3 1.6 47 4.7 NNW 19 22 10 12 1018.6 1018.6 0.0
21/10:30pm 11.8 7.9 1.4 49 4.4 NNW 11 19 6 10 1018.7 1018.7 0.0
21/10:00pm 12.8 8.6 1.8 47 4.7 N 13 17 7 9 1018.4 1018.4 0.0
21/09:30pm 11.8 7.9 1.4 49 4.4 N 11 13 6 7 1018.6 1018.6 0.0
21/09:00pm 14.3 9.3 1.6 42 5.5 N 17 24 9 13 1018.6 1018.6 0.0
21/08:30pm 14.6 8.7 1.5 41 5.7 NNE 22 33 12 18 1018.0 1018.0 0.0
21/08:00pm 15.0 9.1 1.5 40 5.9 N 22 32 12 17 1018.5 1018.5 0.0
21/07:30pm 15.7 9.7 1.1 37 6.3 NNE 22 32 12 17 1018.3 1018.3 0.0
21/07:00pm 15.7 10.7 1.4 38 6.3 N 17 24 9 13 1018.3 1018.3 0.0
21/06:30pm 16.2 10.8 1.5 37 6.5 NNE 19 30 10 16 1018.2 1018.2 0.0
21/06:00pm 16.6 11.9 1.1 35 6.8 NNE 15 19 8 10 1018.3 1018.3 0.0
21/05:30pm 17.8 12.2 0.9 32 7.4 N 20 28 11 15 1018.4 1018.4 0.0
21/05:00pm 18.9 13.0 1.4 31 7.9 N 22 30 12 16 1018.3 1018.3 0.0
21/04:30pm 19.5 13.2 1.5 30 8.1 N 24 32 13 17 1018.4 1018.4 0.0
21/04:00pm 19.9 12.9 1.8 30 8.3 N 28 35 15 19 1018.5 1018.5 0.0
21/03:30pm 20.1 13.0 1.5 29 8.4 N 28 37 15 20 1018.5 1018.5 0.0
21/03:00pm 20.1 13.5 2.0 30 8.3 NNW 26 37 14 20 1018.5 1018.5 0.0
21/02:30pm 20.2 12.5 2.5 31 8.2 NNW 32 44 17 24 1018.7 1018.7 0.0
21/02:00pm 20.0 12.6 1.9 30 8.3 NNW 30 41 16 22 1018.7 1018.7 0.0
21/01:30pm 19.1 11.3 1.6 31 7.9 NNW 32 46 17 25 1019.0 1019.0 0.0
21/01:00pm 18.4 10.6 1.9 33 7.5 NNW 32 44 17 24 1019.3 1019.3 0.0
21/12:30pm 18.3 10.7 2.6 35 7.2 NNW 32 43 17 23 1019.9 1019.9 0.0
21/12:00pm 17.6 10.0 2.8 37 6.8 N 32 41 17 22 1020.4 1020.4 0.0
21/11:30am 16.4 8.1 2.4 39 6.3 N 35 48 19 26 1020.8 1020.8 0.0
21/11:00am 15.9 8.6 2.7 41 6.0 N 30 39 16 21 1021.3 1021.3 0.0
21/10:30am 14.8 8.0 3.3 46 5.2 N 28 35 15 19 1021.6 1021.6 0.0
21/10:00am 13.5 7.1 3.0 49 4.7 N 26 35 14 19 1021.8 1021.8 0.0
21/09:30am 12.2 6.6 3.2 54 4.0 N 22 32 12 17 1021.8 1021.8 0.0
21/09:00am 10.5 6.8 4.2 65 2.8 NNW 13 22 7 12 1021.6 1021.6 0.0
21/08:30am 6.3 2.8 3.3 81 1.3 NNW 11 13 6 7 1021.5 1021.5 0.0
21/08:00am 2.5 -1.3 1.5 93 0.4 NW 11 11 6 6 1021.4 1021.4 0.0
21/07:30am 0.5 -3.3 -0.4 94 0.3 WNW 9 11 5 6 1021.2 1021.2 0.0
21/07:00am 0.2 -3.2 -0.9 92 0.4 NW 7 9 4 5 1020.9 1020.9 0.0
21/06:30am 0.7 -3.8 -0.3 93 0.4 NNW 13 17 7 9 1020.6 1020.6 0.0
21/06:00am 0.5 -4.0 -0.4 94 0.3 NNW 13 13 7 7 1020.5 1020.5 0.0
21/05:30am 1.1 -3.4 -0.2 91 0.5 NNW 13 13 7 7 1020.2 1020.2 0.0
21/05:00am 1.1 -3.7 0.1 93 0.4 WNW 15 17 8 9 1020.0 1020.0 0.0
21/04:30am 0.3 -3.5 -0.5 94 0.3 NW 9 11 5 6 1019.7 1019.7 0.0
21/04:00am 1.1 -2.3 -0.4 90 0.5 NW 7 9 4 5 1019.4 1019.4 0.0
21/03:30am 0.7 -2.7 -0.3 93 0.4 NW 7 9 4 5 1019.5 1019.5 0.0
21/03:00am 0.8 -2.9 -0.3 92 0.4 NW 9 11 5 6 1019.5 1019.5 0.0
21/02:30am 1.2 -2.2 -0.3 90 0.5 NW 7 9 4 5 1019.9 1019.9 0.0
21/02:00am 1.3 -3.2 0.0 91 0.5 NW 13 15 7 8 1020.0 1020.0 0.0
21/01:30am 1.6 -2.5 0.1 90 0.5 NNW 11 13 6 7 1020.1 1020.1 0.0
21/01:00am 1.1 -2.6 -0.1 92 0.4 NW 9 11 5 6 1020.6 1020.6 0.0
21/12:30am 1.4 -2.3 -0.2 89 0.6 NW 9 11 5 6 1020.4 1020.4 0.0
21/12:00am 1.9 -1.8 0.1 88 0.7 NW 9 11 5 6 1020.5 1020.5 0.0
 
Date/Time
CST
Temp
°C
App
Temp
°C
Dew
Point
°C
Rel
Hum
%
Delta-T
°C
Wind Press
QNH
hPa
Press
MSL
hPa
Rain since
9am
mm
Dir  Spd
km/h
Gust
km/h
Spd
kts
Gust
kts
20/11:30pm 2.0 -1.7 0.2 88 0.7 NW 9 11 5 6 1020.6 1020.6 0.0
20/11:00pm 2.7 -0.4 -0.1 82 1.0 WNW 6 7 3 4 1021.0 1021.0 0.0
20/10:30pm 3.4 -0.2 0.6 82 1.1 WNW 9 11 5 6 1021.2 1021.2 0.0
20/10:00pm 4.1 1.0 1.1 81 1.2 WNW 7 9 4 5 1021.2 1021.2 0.0
20/09:30pm 4.1 1.0 1.1 81 1.2 WNW 7 9 4 5 1021.1 1021.1 0.0
20/09:00pm 4.0 0.9 1.2 82 1.1 NW 7 9 4 5 1021.2 1021.2 0.0
20/08:30pm 5.5 3.7 1.4 75 1.6 CALM 0 0 0 0 1021.0 1021.0 0.0
20/08:00pm 7.7 5.6 2.0 67 2.3 NNE 2 11 1 6 1021.1 1021.1 0.0
20/07:30pm 10.5 6.8 2.1 56 3.5 NNE 11 11 6 6 1020.6 1020.6 0.0
20/07:00pm 11.6 8.3 2.6 54 3.9 NNE 9 13 5 7 1020.5 1020.5 0.0
20/06:30pm 12.0 8.7 2.5 52 4.1 NNE 9 11 5 6 1020.3 1020.3 0.0
20/06:00pm 12.8 9.9 2.4 49 4.5 NE 7 9 4 5 1020.1 1020.1 0.0
20/05:30pm 13.9 10.2 2.2 45 5.1 NNE 11 13 6 7 1019.9 1019.9 0.0
20/05:00pm 14.0 10.3 2.6 46 5.0 N 11 15 6 8 1019.9 1019.9 0.0
20/04:30pm 15.1 10.7 2.6 43 5.6 N 15 19 8 10 1020.1 1020.1 0.0
20/04:00pm 14.9 10.2 3.4 46 5.2 NNW 17 22 9 12 1020.5 1020.5 0.0
20/03:30pm 15.4 10.6 2.6 42 5.7 N 17 26 9 14 1020.4 1020.4 0.0
20/03:00pm 14.6 11.1 3.4 47 5.1 N 11 17 6 9 1020.7 1020.7 0.0
20/02:30pm 15.1 11.0 4.2 48 5.0 NNW 15 22 8 12 1020.9 1020.9 0.0
20/02:00pm 14.7 10.0 3.2 46 5.2 N 17 24 9 13 1020.8 1020.8 0.0
20/01:30pm 14.6 12.1 6.4 58 3.9 ENE 9 17 5 9 1021.2 1021.2 0.0
20/01:00pm 14.3 10.5 3.7 49 4.8 NNE 13 17 7 9 1021.7 1021.7 0.0

Other Formats:

Comma delimited format used in spreadsheet applications
http://www.bom.gov.au/fwo/IDS60801/IDS60801.95664.axf

JavaScript Object Notation format (JSON) in row-major order
http://www.bom.gov.au/fwo/IDS60801/IDS60801.95664.json